createdAt,value
2022-09-21T00:01:22.036Z,8.41
2022-09-21T00:03:54.117Z,8.05
2022-09-21T00:06:23.492Z,8.32
2022-09-21T00:08:52.938Z,8.27
2022-09-21T00:11:24.883Z,8.16
2022-09-21T00:13:54.259Z,8.18
2022-09-21T00:16:22.827Z,8.10
2022-09-21T00:18:50.922Z,8.05
2022-09-21T00:21:19.352Z,7.86
2022-09-21T00:23:47.435Z,7.87
2022-09-21T00:26:19.163Z,7.90
2022-09-21T00:28:47.234Z,7.79
2022-09-21T00:31:18.209Z,7.67
2022-09-21T00:33:46.118Z,7.58
2022-09-21T00:36:16.674Z,7.60
2022-09-21T00:38:44.871Z,7.58
2022-09-21T00:41:13.431Z,7.46
2022-09-21T00:43:47.118Z,7.40
2022-09-21T00:46:19.263Z,7.34
2022-09-21T00:48:47.184Z,7.29
2022-09-21T00:51:15.668Z,7.28
2022-09-21T00:53:44.198Z,7.20
2022-09-21T00:56:13.810Z,7.18
2022-09-21T00:58:47.725Z,7.15
2022-09-21T01:01:18.133Z,7.16
2022-09-21T01:03:47.179Z,7.17
2022-09-21T01:06:17.819Z,7.23
2022-09-21T01:08:48.833Z,6.86
2022-09-21T01:11:43.354Z,7.19
2022-09-21T01:14:35.132Z,7.15
2022-09-21T01:17:08.025Z,7.23
2022-09-21T01:20:04.962Z,7.08
2022-09-21T01:22:45.801Z,7.24
2022-09-21T01:25:28.431Z,7.27
2022-09-21T01:28:13.830Z,7.19
2022-09-21T01:30:48.895Z,7.42
2022-09-21T01:33:24.392Z,7.45
2022-09-21T01:35:57.717Z,7.33
2022-09-21T01:38:29.208Z,7.17
2022-09-21T01:41:01.648Z,7.29
2022-09-21T01:43:32.536Z,6.86
2022-09-21T01:46:04.965Z,7.22
2022-09-21T01:48:36.272Z,7.26
2022-09-21T01:51:08.600Z,7.26
2022-09-21T01:53:41.002Z,7.22
2022-09-21T01:56:13.608Z,7.19
2022-09-21T01:58:46.445Z,7.16
2022-09-21T02:01:20.824Z,7.22
2022-09-21T02:03:53.163Z,7.18
2022-09-21T02:06:21.553Z,7.20
2022-09-21T02:08:49.737Z,7.27
2022-09-21T02:11:17.605Z,7.16
2022-09-21T02:13:49.432Z,6.69
2022-09-21T02:16:37.157Z,7.14
2022-09-21T02:19:13.501Z,6.67
2022-09-21T02:21:51.968Z,7.02
2022-09-21T02:24:28.336Z,7.03
2022-09-21T02:27:03.996Z,7.03
2022-09-21T02:29:42.579Z,7.09
2022-09-21T02:32:19.183Z,6.97
2022-09-21T02:34:54.065Z,7.05
2022-09-21T02:37:31.223Z,6.94
2022-09-21T02:40:02.757Z,6.91
2022-09-21T02:42:34.205Z,6.85
2022-09-21T02:45:08.256Z,6.86
2022-09-21T02:47:43.858Z,6.79
2022-09-21T02:50:16.987Z,6.62
2022-09-21T02:52:45.612Z,6.68
2022-09-21T02:55:16.175Z,6.64
2022-09-21T02:57:44.469Z,6.39
2022-09-21T03:00:13.450Z,6.60
2022-09-21T03:02:44.665Z,6.57
2022-09-21T03:05:14.287Z,6.53
2022-09-21T03:07:42.445Z,6.43
2022-09-21T03:10:11.182Z,6.45
2022-09-21T03:12:39.064Z,6.42
2022-09-21T03:15:07.680Z,6.22
2022-09-21T03:17:35.498Z,6.33
2022-09-21T03:20:05.178Z,6.31
2022-09-21T03:22:33.023Z,6.29
2022-09-21T03:25:00.888Z,6.17
2022-09-21T03:27:28.726Z,6.11
2022-09-21T03:30:01.293Z,5.82
2022-09-21T03:32:29.903Z,6.02
2022-09-21T03:34:57.727Z,6.03
2022-09-21T03:37:27.048Z,6.06
2022-09-21T03:39:54.861Z,6.13
2022-09-21T03:42:22.671Z,5.86
2022-09-21T03:44:50.494Z,6.13
2022-09-21T03:47:18.303Z,6.07
2022-09-21T03:49:46.271Z,6.07
2022-09-21T03:52:14.091Z,6.11
2022-09-21T03:54:43.679Z,6.08
2022-09-21T03:57:11.499Z,6.08
2022-09-21T03:59:39.303Z,6.12
2022-09-21T04:02:07.159Z,6.11
2022-09-21T04:04:35.143Z,5.17
2022-09-21T04:07:02.950Z,6.14
2022-09-21T04:09:31.537Z,6.17
2022-09-21T04:12:00.714Z,5.94
2022-09-21T04:14:29.182Z,6.14
2022-09-21T04:16:57.945Z,6.30
2022-09-21T04:19:25.996Z,6.46
2022-09-21T04:21:53.866Z,6.64
2022-09-21T04:24:21.683Z,6.85
2022-09-21T04:26:49.619Z,7.16
2022-09-21T04:29:18.821Z,7.43
2022-09-21T04:31:46.619Z,7.87
2022-09-21T04:34:15.220Z,7.68
2022-09-21T04:36:43.639Z,8.08
2022-09-21T04:39:11.467Z,8.60
2022-09-21T04:41:39.281Z,9.10
2022-09-21T04:44:07.150Z,9.37
2022-09-21T04:46:36.419Z,9.65
2022-09-21T04:49:04.460Z,9.38
2022-09-21T04:51:32.486Z,9.16
2022-09-21T04:54:00.575Z,9.06
2022-09-21T04:56:28.406Z,8.91
2022-09-21T04:58:56.239Z,9.05
2022-09-21T05:01:25.272Z,9.07
2022-09-21T05:03:54.633Z,9.26
2022-09-21T05:06:22.482Z,9.35
2022-09-21T05:09:07.527Z,9.23
2022-09-21T05:11:35.367Z,9.27
2022-09-21T05:14:03.168Z,9.53
2022-09-21T05:16:30.995Z,9.61
2022-09-21T05:19:00.213Z,9.65
2022-09-21T05:21:28.129Z,9.41
2022-09-21T05:23:56.009Z,9.73
2022-09-21T05:26:24.021Z,9.93
2022-09-21T05:28:52.354Z,9.83
2022-09-21T05:31:37.010Z,9.91
2022-09-21T05:34:15.637Z,9.86
2022-09-21T05:36:52.381Z,9.58
2022-09-21T05:39:20.800Z,9.54
2022-09-21T05:41:49.192Z,9.29
2022-09-21T05:44:17.531Z,9.42
2022-09-21T05:46:55.945Z,9.43
2022-09-21T05:49:37.244Z,9.73
2022-09-21T05:52:15.040Z,9.78
2022-09-21T05:54:53.635Z,9.89
2022-09-21T05:57:30.910Z,10.30
2022-09-21T06:00:09.312Z,10.51
2022-09-21T06:02:52.495Z,10.66
2022-09-21T06:05:22.888Z,10.76
2022-09-21T06:07:50.723Z,10.88
2022-09-21T06:10:18.991Z,11.08
2022-09-21T06:12:46.983Z,11.01
2022-09-21T06:15:16.543Z,11.04
2022-09-21T06:17:44.616Z,11.21
2022-09-21T06:20:12.661Z,11.35
2022-09-21T06:22:41.902Z,11.46
2022-09-21T06:25:09.979Z,11.81
2022-09-21T06:27:37.798Z,11.93
2022-09-21T06:30:06.376Z,12.33
2022-09-21T06:32:34.210Z,12.52
2022-09-21T06:35:02.093Z,12.85
2022-09-21T06:37:29.945Z,13.26
2022-09-21T06:39:59.185Z,13.45
2022-09-21T06:42:28.280Z,13.64
2022-09-21T06:44:56.104Z,13.96
2022-09-21T06:47:23.971Z,13.92
2022-09-21T06:49:54.109Z,14.03
2022-09-21T06:52:21.953Z,14.25
2022-09-21T06:54:49.770Z,13.15
2022-09-21T06:57:19.029Z,14.21
2022-09-21T06:59:47.133Z,14.32
2022-09-21T07:02:15.068Z,14.10
2022-09-21T07:04:43.536Z,13.93
2022-09-21T07:07:11.452Z,13.85
2022-09-21T07:12:29.192Z,13.70
2022-09-21T07:14:57.258Z,13.63
2022-09-21T07:17:25.067Z,13.75
2022-09-21T07:19:53.244Z,13.49
2022-09-21T07:22:21.075Z,13.79
2022-09-21T07:24:48.895Z,14.07
2022-09-21T07:27:16.721Z,14.19
2022-09-21T07:29:45.913Z,14.21
2022-09-21T07:32:14.013Z,13.72
2022-09-21T07:34:41.856Z,13.52
2022-09-21T07:37:09.743Z,13.60
2022-09-21T07:39:38.919Z,13.58
2022-09-21T07:42:07.278Z,13.23
2022-09-21T07:44:35.343Z,12.97
2022-09-21T07:47:04.591Z,13.39
2022-09-21T07:49:32.412Z,13.19
2022-09-21T07:52:03.842Z,13.23
2022-09-21T07:54:34.465Z,13.21
2022-09-21T07:57:19.852Z,13.31
2022-09-21T07:59:48.821Z,13.69
2022-09-21T08:02:18.084Z,13.86
2022-09-21T08:04:45.964Z,14.08
2022-09-21T08:07:13.790Z,14.02
2022-09-21T08:09:41.920Z,14.01
2022-09-21T08:12:11.228Z,14.17
2022-09-21T08:14:39.040Z,14.29
2022-09-21T08:17:06.868Z,14.64
2022-09-21T08:19:36.346Z,15.05
2022-09-21T08:22:04.211Z,14.89
2022-09-21T08:24:33.121Z,15.05
2022-09-21T08:27:01.261Z,15.36
2022-09-21T08:29:29.310Z,15.57
2022-09-21T08:31:57.628Z,15.83
2022-09-21T08:34:26.407Z,16.01
2022-09-21T08:36:56.008Z,16.19
2022-09-21T08:39:24.038Z,15.23
2022-09-21T08:42:11.732Z,16.08
2022-09-21T08:44:42.475Z,16.15
2022-09-21T08:47:16.929Z,16.09
2022-09-21T08:49:50.344Z,15.45
2022-09-21T08:52:22.376Z,15.40
2022-09-21T08:54:55.828Z,15.87
2022-09-21T08:57:27.585Z,16.17
2022-09-21T08:59:55.586Z,15.66
2022-09-21T09:02:38.670Z,16.42
2022-09-21T09:05:20.722Z,16.28
2022-09-21T09:08:06.336Z,16.37
2022-09-21T09:10:39.109Z,16.26
2022-09-21T09:13:27.660Z,16.33
2022-09-21T09:16:07.010Z,16.20
2022-09-21T09:18:43.934Z,15.84
2022-09-21T09:21:26.186Z,16.02
2022-09-21T09:24:04.319Z,15.68
2022-09-21T09:26:39.851Z,15.87
2022-09-21T09:29:18.435Z,16.00
2022-09-21T09:31:46.745Z,16.14
2022-09-21T09:34:20.902Z,16.35
2022-09-21T09:36:58.734Z,16.94
2022-09-21T09:39:30.749Z,16.74
2022-09-21T09:42:14.822Z,17.12
2022-09-21T09:44:56.618Z,16.79
2022-09-21T09:47:36.148Z,16.76
2022-09-21T09:50:07.949Z,16.93
2022-09-21T09:52:36.089Z,17.34
2022-09-21T09:55:16.584Z,17.00
2022-09-21T09:57:44.796Z,16.69
2022-09-21T10:00:16.470Z,16.92
2022-09-21T10:02:49.462Z,17.16
2022-09-21T10:05:23.836Z,16.85
2022-09-21T10:07:53.004Z,17.22
2022-09-21T10:10:33.293Z,17.14
2022-09-21T10:13:11.612Z,17.21
2022-09-21T10:15:44.961Z,17.23
2022-09-21T10:18:21.056Z,16.97
2022-09-21T10:21:01.695Z,18.11
2022-09-21T10:23:31.642Z,18.41
2022-09-21T10:26:03.961Z,18.67
2022-09-21T10:28:32.555Z,19.10
2022-09-21T10:31:12.227Z,19.29
2022-09-21T10:33:52.162Z,20.02
2022-09-21T10:36:32.593Z,19.87
2022-09-21T10:39:19.091Z,20.33
2022-09-21T10:41:53.121Z,20.62
2022-09-21T10:44:24.780Z,19.88
2022-09-21T10:46:53.678Z,18.99
2022-09-21T10:49:25.204Z,18.81
2022-09-21T10:51:57.324Z,17.81
2022-09-21T10:54:28.531Z,18.28
2022-09-21T10:57:02.747Z,17.41
2022-09-21T10:59:32.626Z,16.84
2022-09-21T11:02:01.978Z,18.69
2022-09-21T11:04:38.061Z,20.02
2022-09-21T11:07:19.686Z,20.68
2022-09-21T11:10:00.185Z,20.41
2022-09-21T11:12:47.785Z,20.37
2022-09-21T11:15:25.420Z,18.72
2022-09-21T11:18:00.359Z,17.28
2022-09-21T11:20:35.187Z,18.81
2022-09-21T11:23:11.006Z,19.05
2022-09-21T11:25:46.916Z,19.82
2022-09-21T11:28:22.886Z,19.41
2022-09-21T11:31:05.239Z,19.76
2022-09-21T11:33:46.708Z,19.44
2022-09-21T11:36:24.245Z,20.02
2022-09-21T11:38:59.467Z,20.70
2022-09-21T11:41:54.580Z,22.12
2022-09-21T11:44:34.842Z,22.18
2022-09-21T11:47:12.337Z,20.59
2022-09-21T11:50:19.511Z,18.83
2022-09-21T11:52:58.307Z,18.50
2022-09-21T11:55:44.537Z,18.91
2022-09-21T11:58:24.845Z,18.77
2022-09-21T12:01:08.912Z,17.62
2022-09-21T12:03:56.265Z,18.34
2022-09-21T12:06:39.996Z,19.33
2022-09-21T12:09:30.379Z,20.24
2022-09-21T12:12:08.160Z,20.07
2022-09-21T12:14:44.142Z,19.92
2022-09-21T12:17:23.370Z,19.90
2022-09-21T12:19:59.796Z,19.66
2022-09-21T12:22:30.822Z,19.57
2022-09-21T12:25:03.573Z,19.97
2022-09-21T12:27:38.109Z,20.16
2022-09-21T12:30:13.084Z,19.54
2022-09-21T12:32:53.465Z,18.49
2022-09-21T12:35:27.586Z,17.18
2022-09-21T12:38:00.592Z,17.39
2022-09-21T12:40:37.677Z,17.22
2022-09-21T12:43:16.544Z,16.61
2022-09-21T12:45:52.475Z,16.45
2022-09-21T12:48:31.058Z,17.35
2022-09-21T12:51:05.805Z,17.46
2022-09-21T12:53:37.797Z,16.92
2022-09-21T12:56:10.161Z,16.43
2022-09-21T12:59:06.486Z,16.36
2022-09-21T13:01:38.883Z,16.81
2022-09-21T13:04:27.760Z,16.17
2022-09-21T13:07:24.316Z,16.70
2022-09-21T13:09:53.168Z,16.33
2022-09-21T13:12:25.131Z,16.07
2022-09-21T13:15:03.614Z,15.89
2022-09-21T13:17:33.442Z,15.89
2022-09-21T13:20:06.464Z,15.97
2022-09-21T13:22:36.768Z,16.20
2022-09-21T13:25:09.355Z,16.36
2022-09-21T13:28:04.347Z,16.60
2022-09-21T13:30:36.756Z,16.58
2022-09-21T13:33:06.845Z,16.59
2022-09-21T13:36:03.593Z,16.51
2022-09-21T13:38:37.325Z,16.54
2022-09-21T13:41:35.463Z,16.41
2022-09-21T13:44:20.809Z,16.32
2022-09-21T13:46:56.987Z,16.22
2022-09-21T13:49:50.885Z,15.85
2022-09-21T13:52:30.843Z,15.49
2022-09-21T13:55:01.219Z,15.84
2022-09-21T13:57:37.983Z,16.05
2022-09-21T14:00:36.022Z,16.12
2022-09-21T14:03:07.540Z,16.17
2022-09-21T14:05:41.091Z,16.05
2022-09-21T14:08:31.226Z,15.65
2022-09-21T14:11:03.198Z,15.18
2022-09-21T14:13:35.467Z,15.10
2022-09-21T14:16:55.772Z,15.07
2022-09-21T14:20:03.016Z,14.95
2022-09-21T14:22:39.193Z,14.95
2022-09-21T14:25:30.146Z,15.02
2022-09-21T14:28:05.816Z,15.12
2022-09-21T14:30:36.911Z,15.23
2022-09-21T14:33:22.185Z,15.34
2022-09-21T14:35:52.444Z,15.12
2022-09-21T14:38:24.448Z,15.01
2022-09-21T14:40:57.990Z,14.98
2022-09-21T14:43:29.806Z,14.93
2022-09-21T14:46:15.063Z,14.92
2022-09-21T14:48:52.537Z,14.90
2022-09-21T14:51:29.225Z,14.72
2022-09-21T14:54:23.152Z,14.73
2022-09-21T14:57:04.943Z,14.73
2022-09-21T14:59:48.408Z,14.75
2022-09-21T15:02:22.919Z,14.65
2022-09-21T15:05:13.436Z,14.60
2022-09-21T15:08:05.913Z,14.49
2022-09-21T15:10:56.069Z,14.39
2022-09-21T15:13:41.606Z,14.35
2022-09-21T15:16:20.307Z,14.40
2022-09-21T15:18:50.612Z,14.42
2022-09-21T15:21:26.358Z,14.39
2022-09-21T15:23:54.852Z,14.49
2022-09-21T15:26:26.729Z,14.52
2022-09-21T15:29:09.283Z,14.40
2022-09-21T15:31:46.345Z,14.43
2022-09-21T15:34:16.418Z,14.43
2022-09-21T15:36:45.333Z,14.43
2022-09-21T15:39:25.963Z,14.56
2022-09-21T15:42:20.006Z,14.65
2022-09-21T15:44:50.948Z,14.68
2022-09-21T15:47:22.191Z,14.57
2022-09-21T15:49:51.836Z,14.59
2022-09-21T15:52:27.778Z,14.41
2022-09-21T15:55:00.443Z,14.29
2022-09-21T15:57:38.974Z,14.35
2022-09-21T16:00:20.316Z,14.31
2022-09-21T16:03:04.845Z,14.13
2022-09-21T16:05:35.460Z,13.98
2022-09-21T16:08:10.170Z,13.85
2022-09-21T16:10:41.781Z,13.81
2022-09-21T16:13:35.586Z,13.63
2022-09-21T16:16:06.846Z,13.61
2022-09-21T16:18:43.227Z,13.50
2022-09-21T16:21:20.406Z,13.36
2022-09-21T16:23:49.790Z,13.15
2022-09-21T16:26:24.845Z,13.13
2022-09-21T16:29:00.358Z,12.96
2022-09-21T16:31:35.477Z,12.98
2022-09-21T16:34:07.590Z,12.90
2022-09-21T16:36:43.247Z,12.84
2022-09-21T16:39:16.538Z,12.77
2022-09-21T16:41:58.320Z,12.75
2022-09-21T16:44:28.050Z,12.55
2022-09-21T16:47:00.293Z,12.73
2022-09-21T16:49:31.503Z,12.65
2022-09-21T16:52:00.042Z,12.65
2022-09-21T16:54:29.018Z,12.54
2022-09-21T16:57:00.781Z,12.44
2022-09-21T16:59:29.447Z,12.42
2022-09-21T17:02:00.548Z,12.37
2022-09-21T17:04:31.466Z,12.38
2022-09-21T17:07:00.838Z,12.39
2022-09-21T17:09:32.407Z,12.44
2022-09-21T17:12:01.734Z,12.33
2022-09-21T17:14:35.296Z,12.42
2022-09-21T17:17:08.473Z,12.29
2022-09-21T17:19:36.878Z,12.29
2022-09-21T17:22:06.895Z,12.06
2022-09-21T17:24:50.378Z,12.20
2022-09-21T17:27:20.021Z,12.14
2022-09-21T17:29:49.441Z,12.10
2022-09-21T17:32:21.307Z,12.11
2022-09-21T17:34:56.323Z,11.88
2022-09-21T17:37:25.320Z,12.07
2022-09-21T17:39:53.910Z,12.01
2022-09-21T17:42:24.611Z,11.96
2022-09-21T17:45:12.963Z,12.01
2022-09-21T17:47:43.115Z,11.94
2022-09-21T17:50:23.009Z,11.93
2022-09-21T17:53:09.262Z,11.92
2022-09-21T17:55:38.471Z,11.93
2022-09-21T17:58:20.566Z,11.85
2022-09-21T18:00:59.161Z,11.85
2022-09-21T18:03:30.496Z,11.32
2022-09-21T18:06:00.720Z,11.60
2022-09-21T18:08:29.957Z,11.58
2022-09-21T18:11:07.000Z,11.53
2022-09-21T18:13:46.262Z,11.50
2022-09-21T18:16:28.117Z,11.44
2022-09-21T18:19:05.482Z,11.36
2022-09-21T18:21:40.793Z,11.24
2022-09-21T18:24:20.144Z,11.21
2022-09-21T18:26:49.127Z,11.16
2022-09-21T18:29:39.489Z,10.74
2022-09-21T18:32:29.063Z,10.97
2022-09-21T18:35:19.604Z,10.93
2022-09-21T18:37:57.914Z,10.92
2022-09-21T18:40:32.159Z,10.83
2022-09-21T18:43:07.263Z,10.86
2022-09-21T18:45:42.000Z,10.85
2022-09-21T18:48:24.076Z,10.60
2022-09-21T18:51:01.158Z,10.92
2022-09-21T18:53:37.732Z,11.00
2022-09-21T18:56:08.393Z,10.90
2022-09-21T18:58:38.576Z,10.93
2022-09-21T19:01:07.245Z,10.05
2022-09-21T19:03:37.815Z,10.92
2022-09-21T19:06:23.306Z,10.88
2022-09-21T19:09:00.872Z,10.89
2022-09-21T19:11:34.950Z,10.77
2022-09-21T19:14:12.120Z,10.81
2022-09-21T19:16:48.579Z,9.53
2022-09-21T19:19:28.416Z,10.77
2022-09-21T19:22:03.403Z,10.71
2022-09-21T19:24:39.002Z,10.55
2022-09-21T19:27:27.905Z,10.50
2022-09-21T19:30:05.991Z,10.48
2022-09-21T19:32:39.215Z,10.43
2022-09-21T19:35:22.783Z,10.42
2022-09-21T19:37:53.689Z,10.38
2022-09-21T19:40:23.674Z,10.35
2022-09-21T19:43:16.366Z,10.19
2022-09-21T19:45:55.423Z,10.43
2022-09-21T19:48:28.685Z,10.44
2022-09-21T19:50:58.923Z,10.12
2022-09-21T19:53:46.436Z,10.39
2022-09-21T19:56:34.021Z,10.34
2022-09-21T19:59:19.966Z,10.30
2022-09-21T20:01:52.947Z,10.07
2022-09-21T20:04:27.584Z,10.22
2022-09-21T20:07:03.343Z,10.27
2022-09-21T20:09:42.145Z,10.28
2022-09-21T20:12:19.711Z,10.28
2022-09-21T20:14:52.273Z,10.27
2022-09-21T20:17:26.172Z,10.00
2022-09-21T20:20:00.300Z,10.30
2022-09-21T20:22:35.817Z,10.36
2022-09-21T20:25:12.580Z,10.39
2022-09-21T20:27:42.174Z,10.39
2022-09-21T20:30:12.236Z,10.37
2022-09-21T20:32:42.305Z,10.35
2022-09-21T20:35:16.972Z,10.34
2022-09-21T20:37:45.413Z,10.28
2022-09-21T20:40:15.953Z,10.06
2022-09-21T20:42:43.897Z,10.26
2022-09-21T20:45:13.101Z,10.31
2022-09-21T20:47:41.212Z,9.49
2022-09-21T20:50:11.679Z,10.25
2022-09-21T20:52:40.763Z,10.28
2022-09-21T20:55:10.165Z,10.07
2022-09-21T20:57:40.283Z,9.98
2022-09-21T21:00:09.884Z,9.84
2022-09-21T21:02:39.276Z,10.02
2022-09-21T21:05:09.241Z,9.98
2022-09-21T21:07:37.317Z,9.93
2022-09-21T21:10:05.733Z,9.65
2022-09-21T21:12:33.620Z,9.85
2022-09-21T21:15:02.819Z,9.85
2022-09-21T21:17:31.188Z,9.79
2022-09-21T21:19:59.028Z,9.77
2022-09-21T21:22:26.851Z,9.65
2022-09-21T21:24:54.712Z,9.68
2022-09-21T21:27:25.816Z,9.52
2022-09-21T21:29:55.237Z,9.66
2022-09-21T21:32:26.685Z,9.57
2022-09-21T21:34:55.756Z,9.57
2022-09-21T21:37:26.045Z,9.56
2022-09-21T21:39:54.322Z,9.54
2022-09-21T21:42:22.593Z,9.54
2022-09-21T21:44:50.493Z,9.49
2022-09-21T21:50:09.777Z,9.39
2022-09-21T21:52:37.712Z,9.46
2022-09-21T21:55:06.330Z,9.45
2022-09-21T21:57:34.833Z,9.35
2022-09-21T22:00:03.253Z,9.42
2022-09-21T22:02:31.675Z,9.39
2022-09-21T22:04:59.544Z,9.44
2022-09-21T22:07:28.764Z,9.35
2022-09-21T22:09:56.680Z,9.41
2022-09-21T22:12:26.127Z,9.44
2022-09-21T22:14:53.998Z,9.42
2022-09-21T22:17:21.819Z,9.42
2022-09-21T22:19:49.620Z,9.42
2022-09-21T22:22:17.429Z,9.36
2022-09-21T22:24:46.615Z,9.10
2022-09-21T22:27:14.461Z,9.27
2022-09-21T22:29:42.311Z,9.21
2022-09-21T22:32:10.119Z,9.24
2022-09-21T22:34:38.053Z,9.25
2022-09-21T22:37:05.921Z,9.25
2022-09-21T22:39:33.791Z,9.25
2022-09-21T22:42:02.985Z,9.22
2022-09-21T22:44:30.930Z,9.18
2022-09-21T22:46:58.774Z,9.13
2022-09-21T22:49:26.579Z,9.15
2022-09-21T22:51:54.409Z,9.10
2022-09-21T22:54:22.244Z,8.91
2022-09-21T22:56:50.112Z,9.19
2022-09-21T22:59:19.349Z,9.13
2022-09-21T23:01:47.184Z,9.26
2022-09-21T23:04:15.636Z,9.22
2022-09-21T23:06:45.258Z,9.18
2022-09-21T23:09:15.428Z,9.16
2022-09-21T23:11:47.388Z,9.17
2022-09-21T23:14:16.476Z,8.98
2022-09-21T23:16:46.117Z,9.11
2022-09-21T23:19:16.426Z,9.08
2022-09-21T23:21:46.764Z,9.08
2022-09-21T23:24:14.743Z,9.09
2022-09-21T23:26:43.303Z,9.11
2022-09-21T23:29:15.289Z,9.07
2022-09-21T23:31:46.229Z,9.01
2022-09-21T23:34:15.388Z,9.01
2022-09-21T23:36:44.914Z,8.99
2022-09-21T23:39:14.548Z,8.80
2022-09-21T23:41:42.548Z,8.89
2022-09-21T23:44:10.424Z,8.91
2022-09-21T23:46:39.801Z,8.92
2022-09-21T23:49:09.462Z,8.94
2022-09-21T23:51:37.626Z,7.90
2022-09-21T23:54:05.852Z,8.87
2022-09-21T23:56:34.230Z,8.47
2022-09-21T23:59:02.426Z,8.55
